sensor_id;sensor_type;location;lat;lon;timestamp;P1;durP1;ratioP1;P2;durP2;ratioP2
76296;SDS011;65104;52.994;6.552;2023-02-28T00:00:18;5.35;;;2.03;;
76296;SDS011;65104;52.994;6.552;2023-02-28T00:02:45;4.93;;;2.65;;
76296;SDS011;65104;52.994;6.552;2023-02-28T00:05:11;4.40;;;2.15;;
76296;SDS011;65104;52.994;6.552;2023-02-28T00:07:38;5.78;;;2.10;;
76296;SDS011;65104;52.994;6.552;2023-02-28T00:10:04;6.07;;;2.38;;
76296;SDS011;65104;52.994;6.552;2023-02-28T00:12:32;3.83;;;1.92;;
76296;SDS011;65104;52.994;6.552;2023-02-28T00:14:58;4.85;;;2.00;;
76296;SDS011;65104;52.994;6.552;2023-02-28T00:17:23;5.65;;;1.90;;
76296;SDS011;65104;52.994;6.552;2023-02-28T00:19:49;4.72;;;1.58;;
76296;SDS011;65104;52.994;6.552;2023-02-28T00:22:16;3.00;;;1.92;;
76296;SDS011;65104;52.994;6.552;2023-02-28T00:24:43;5.47;;;1.90;;
76296;SDS011;65104;52.994;6.552;2023-02-28T00:27:08;9.45;;;2.58;;
76296;SDS011;65104;52.994;6.552;2023-02-28T00:29:34;3.47;;;2.05;;
76296;SDS011;65104;52.994;6.552;2023-02-28T00:32:00;5.75;;;1.98;;
76296;SDS011;65104;52.994;6.552;2023-02-28T00:34:25;4.63;;;1.90;;
76296;SDS011;65104;52.994;6.552;2023-02-28T00:36:51;5.25;;;1.98;;
76296;SDS011;65104;52.994;6.552;2023-02-28T00:39:16;5.78;;;2.60;;
76296;SDS011;65104;52.994;6.552;2023-02-28T00:41:41;3.75;;;1.90;;
76296;SDS011;65104;52.994;6.552;2023-02-28T00:44:07;4.53;;;2.05;;
76296;SDS011;65104;52.994;6.552;2023-02-28T00:46:32;7.55;;;2.90;;
76296;SDS011;65104;52.994;6.552;2023-02-28T00:48:58;3.25;;;2.00;;
76296;SDS011;65104;52.994;6.552;2023-02-28T00:51:23;3.85;;;2.10;;
76296;SDS011;65104;52.994;6.552;2023-02-28T00:53:49;5.93;;;2.20;;
76296;SDS011;65104;52.994;6.552;2023-02-28T00:56:14;5.40;;;2.22;;
76296;SDS011;65104;52.994;6.552;2023-02-28T00:58:40;3.33;;;1.65;;
76296;SDS011;65104;52.994;6.552;2023-02-28T01:01:05;7.05;;;2.30;;
76296;SDS011;65104;52.994;6.552;2023-02-28T01:03:31;7.15;;;2.35;;
76296;SDS011;65104;52.994;6.552;2023-02-28T01:05:57;3.97;;;2.20;;
76296;SDS011;65104;52.994;6.552;2023-02-28T01:08:23;3.75;;;2.22;;
76296;SDS011;65104;52.994;6.552;2023-02-28T01:10:48;5.47;;;3.08;;
76296;SDS011;65104;52.994;6.552;2023-02-28T01:13:14;4.40;;;2.10;;
76296;SDS011;65104;52.994;6.552;2023-02-28T01:15:41;6.10;;;2.45;;
76296;SDS011;65104;52.994;6.552;2023-02-28T01:18:10;6.03;;;2.50;;
76296;SDS011;65104;52.994;6.552;2023-02-28T01:20:38;3.70;;;2.50;;
76296;SDS011;65104;52.994;6.552;2023-02-28T01:23:04;3.20;;;2.13;;
76296;SDS011;65104;52.994;6.552;2023-02-28T01:25:29;5.72;;;2.58;;
76296;SDS011;65104;52.994;6.552;2023-02-28T01:27:54;4.95;;;2.50;;
76296;SDS011;65104;52.994;6.552;2023-02-28T01:30:20;5.75;;;2.60;;
76296;SDS011;65104;52.994;6.552;2023-02-28T01:32:46;6.95;;;2.92;;
76296;SDS011;65104;52.994;6.552;2023-02-28T01:35:11;6.82;;;2.97;;
76296;SDS011;65104;52.994;6.552;2023-02-28T01:37:36;5.90;;;2.92;;
76296;SDS011;65104;52.994;6.552;2023-02-28T01:40:02;6.00;;;2.75;;
76296;SDS011;65104;52.994;6.552;2023-02-28T01:42:28;4.68;;;2.47;;
76296;SDS011;65104;52.994;6.552;2023-02-28T01:47:29;4.63;;;2.33;;
76296;SDS011;65104;52.994;6.552;2023-02-28T01:50:02;7.32;;;3.00;;
76296;SDS011;65104;52.994;6.552;2023-02-28T01:52:30;4.95;;;2.65;;
76296;SDS011;65104;52.994;6.552;2023-02-28T01:54:58;7.03;;;2.97;;
76296;SDS011;65104;52.994;6.552;2023-02-28T01:57:46;5.68;;;3.17;;
76296;SDS011;65104;52.994;6.552;2023-02-28T02:00:16;6.68;;;3.40;;
76296;SDS011;65104;52.994;6.552;2023-02-28T02:02:45;7.68;;;3.08;;
76296;SDS011;65104;52.994;6.552;2023-02-28T02:05:17;4.68;;;3.05;;
76296;SDS011;65104;52.994;6.552;2023-02-28T02:07:47;6.07;;;3.20;;
76296;SDS011;65104;52.994;6.552;2023-02-28T02:10:17;4.57;;;2.63;;
76296;SDS011;65104;52.994;6.552;2023-02-28T02:16:02;5.88;;;2.85;;
76296;SDS011;65104;52.994;6.552;2023-02-28T02:25:04;7.70;;;3.03;;
76296;SDS011;65104;52.994;6.552;2023-02-28T02:27:42;5.70;;;2.65;;
76296;SDS011;65104;52.994;6.552;2023-02-28T02:33:29;8.00;;;3.95;;
76296;SDS011;65104;52.994;6.552;2023-02-28T02:39:21;7.03;;;3.30;;
76296;SDS011;65104;52.994;6.552;2023-02-28T02:42:01;5.97;;;3.55;;
76296;SDS011;65104;52.994;6.552;2023-02-28T02:44:39;8.45;;;3.88;;
76296;SDS011;65104;52.994;6.552;2023-02-28T02:47:10;8.75;;;4.18;;
76296;SDS011;65104;52.994;6.552;2023-02-28T02:49:42;5.18;;;3.22;;
76296;SDS011;65104;52.994;6.552;2023-02-28T02:52:11;7.22;;;3.65;;
76296;SDS011;65104;52.994;6.552;2023-02-28T02:54:43;5.85;;;3.35;;
76296;SDS011;65104;52.994;6.552;2023-02-28T02:57:13;5.93;;;3.63;;
76296;SDS011;65104;52.994;6.552;2023-02-28T02:59:46;6.05;;;3.47;;
76296;SDS011;65104;52.994;6.552;2023-02-28T03:04:53;6.03;;;3.03;;
76296;SDS011;65104;52.994;6.552;2023-02-28T03:07:25;5.80;;;3.78;;
76296;SDS011;65104;52.994;6.552;2023-02-28T03:09:52;4.85;;;3.13;;
76296;SDS011;65104;52.994;6.552;2023-02-28T03:12:19;7.88;;;3.13;;
76296;SDS011;65104;52.994;6.552;2023-02-28T03:23:02;6.60;;;3.10;;
76296;SDS011;65104;52.994;6.552;2023-02-28T03:25:38;7.28;;;3.70;;
76296;SDS011;65104;52.994;6.552;2023-02-28T03:30:51;7.70;;;3.60;;
76296;SDS011;65104;52.994;6.552;2023-02-28T03:33:42;4.97;;;3.20;;
76296;SDS011;65104;52.994;6.552;2023-02-28T03:36:10;8.20;;;3.47;;
76296;SDS011;65104;52.994;6.552;2023-02-28T03:38:41;6.07;;;3.05;;
76296;SDS011;65104;52.994;6.552;2023-02-28T03:41:15;6.82;;;3.40;;
76296;SDS011;65104;52.994;6.552;2023-02-28T03:44:18;7.63;;;3.80;;
76296;SDS011;65104;52.994;6.552;2023-02-28T03:46:42;6.05;;;3.35;;
76296;SDS011;65104;52.994;6.552;2023-02-28T03:49:17;5.68;;;3.70;;
76296;SDS011;65104;52.994;6.552;2023-02-28T03:51:56;7.30;;;3.67;;
76296;SDS011;65104;52.994;6.552;2023-02-28T03:54:33;6.85;;;3.47;;
76296;SDS011;65104;52.994;6.552;2023-02-28T03:59:37;5.68;;;3.78;;
76296;SDS011;65104;52.994;6.552;2023-02-28T04:02:07;5.60;;;3.78;;
76296;SDS011;65104;52.994;6.552;2023-02-28T04:04:33;9.35;;;3.95;;
76296;SDS011;65104;52.994;6.552;2023-02-28T04:07:03;7.85;;;4.25;;
76296;SDS011;65104;52.994;6.552;2023-02-28T04:09:33;6.30;;;3.72;;
76296;SDS011;65104;52.994;6.552;2023-02-28T04:11:59;6.43;;;3.53;;
76296;SDS011;65104;52.994;6.552;2023-02-28T04:14:24;7.85;;;3.67;;
76296;SDS011;65104;52.994;6.552;2023-02-28T04:16:50;7.55;;;4.47;;
76296;SDS011;65104;52.994;6.552;2023-02-28T04:19:16;7.78;;;3.63;;
76296;SDS011;65104;52.994;6.552;2023-02-28T04:21:43;9.70;;;5.07;;
76296;SDS011;65104;52.994;6.552;2023-02-28T04:24:11;9.43;;;3.85;;
76296;SDS011;65104;52.994;6.552;2023-02-28T04:26:40;8.35;;;3.95;;
76296;SDS011;65104;52.994;6.552;2023-02-28T04:29:08;7.85;;;3.70;;
76296;SDS011;65104;52.994;6.552;2023-02-28T04:31:34;8.25;;;4.47;;
76296;SDS011;65104;52.994;6.552;2023-02-28T04:34:00;9.40;;;4.90;;
76296;SDS011;65104;52.994;6.552;2023-02-28T04:36:26;8.27;;;4.78;;
76296;SDS011;65104;52.994;6.552;2023-02-28T04:38:51;8.10;;;4.63;;
76296;SDS011;65104;52.994;6.552;2023-02-28T04:41:18;10.52;;;4.50;;
76296;SDS011;65104;52.994;6.552;2023-02-28T04:43:43;8.45;;;4.25;;
76296;SDS011;65104;52.994;6.552;2023-02-28T04:46:09;10.15;;;4.63;;
76296;SDS011;65104;52.994;6.552;2023-02-28T04:48:36;8.70;;;4.40;;
76296;SDS011;65104;52.994;6.552;2023-02-28T04:51:12;10.13;;;4.63;;
76296;SDS011;65104;52.994;6.552;2023-02-28T04:53:40;9.98;;;5.10;;
76296;SDS011;65104;52.994;6.552;2023-02-28T04:56:06;12.82;;;6.03;;
76296;SDS011;65104;52.994;6.552;2023-02-28T04:58:33;10.40;;;5.18;;
76296;SDS011;65104;52.994;6.552;2023-02-28T05:01:22;9.25;;;4.70;;
76296;SDS011;65104;52.994;6.552;2023-02-28T05:03:58;9.80;;;5.05;;
76296;SDS011;65104;52.994;6.552;2023-02-28T05:06:26;11.00;;;5.53;;
76296;SDS011;65104;52.994;6.552;2023-02-28T05:08:53;10.18;;;5.25;;
76296;SDS011;65104;52.994;6.552;2023-02-28T05:13:49;12.98;;;6.03;;
76296;SDS011;65104;52.994;6.552;2023-02-28T05:16:15;10.27;;;5.63;;
76296;SDS011;65104;52.994;6.552;2023-02-28T05:18:41;11.00;;;5.47;;
76296;SDS011;65104;52.994;6.552;2023-02-28T05:22:09;12.45;;;6.18;;
76296;SDS011;65104;52.994;6.552;2023-02-28T05:24:16;13.98;;;6.10;;
76296;SDS011;65104;52.994;6.552;2023-02-28T05:26:47;12.50;;;5.72;;
76296;SDS011;65104;52.994;6.552;2023-02-28T05:29:16;13.55;;;6.47;;
76296;SDS011;65104;52.994;6.552;2023-02-28T05:31:41;12.00;;;6.20;;
76296;SDS011;65104;52.994;6.552;2023-02-28T05:34:06;12.45;;;6.18;;
76296;SDS011;65104;52.994;6.552;2023-02-28T05:36:32;14.48;;;7.05;;
76296;SDS011;65104;52.994;6.552;2023-02-28T05:38:57;11.15;;;6.47;;
76296;SDS011;65104;52.994;6.552;2023-02-28T05:41:23;11.85;;;6.07;;
76296;SDS011;65104;52.994;6.552;2023-02-28T05:43:48;13.35;;;6.82;;
76296;SDS011;65104;52.994;6.552;2023-02-28T05:46:14;12.23;;;7.28;;
76296;SDS011;65104;52.994;6.552;2023-02-28T05:48:41;15.10;;;6.88;;
76296;SDS011;65104;52.994;6.552;2023-02-28T05:51:07;11.45;;;6.95;;
76296;SDS011;65104;52.994;6.552;2023-02-28T05:53:33;17.80;;;7.85;;
76296;SDS011;65104;52.994;6.552;2023-02-28T05:55:59;14.50;;;7.32;;
76296;SDS011;65104;52.994;6.552;2023-02-28T05:58:24;12.55;;;7.30;;
76296;SDS011;65104;52.994;6.552;2023-02-28T06:00:54;15.18;;;7.05;;
76296;SDS011;65104;52.994;6.552;2023-02-28T06:03:19;12.73;;;6.90;;
76296;SDS011;65104;52.994;6.552;2023-02-28T06:05:45;14.95;;;7.28;;
76296;SDS011;65104;52.994;6.552;2023-02-28T06:08:10;14.85;;;7.45;;
76296;SDS011;65104;52.994;6.552;2023-02-28T06:10:35;15.48;;;7.47;;
76296;SDS011;65104;52.994;6.552;2023-02-28T06:13:02;14.75;;;7.47;;
76296;SDS011;65104;52.994;6.552;2023-02-28T06:15:28;14.30;;;7.45;;
76296;SDS011;65104;52.994;6.552;2023-02-28T06:17:54;15.93;;;6.90;;
76296;SDS011;65104;52.994;6.552;2023-02-28T06:20:21;14.05;;;7.05;;
76296;SDS011;65104;52.994;6.552;2023-02-28T06:22:47;13.57;;;7.30;;
76296;SDS011;65104;52.994;6.552;2023-02-28T06:25:12;11.25;;;6.80;;
76296;SDS011;65104;52.994;6.552;2023-02-28T06:27:37;14.45;;;7.80;;
76296;SDS011;65104;52.994;6.552;2023-02-28T06:30:03;18.73;;;8.23;;
76296;SDS011;65104;52.994;6.552;2023-02-28T06:32:29;14.27;;;7.68;;
76296;SDS011;65104;52.994;6.552;2023-02-28T06:34:54;14.52;;;7.80;;
76296;SDS011;65104;52.994;6.552;2023-02-28T06:37:20;17.27;;;7.28;;
76296;SDS011;65104;52.994;6.552;2023-02-28T06:39:45;14.48;;;7.80;;
76296;SDS011;65104;52.994;6.552;2023-02-28T06:42:10;17.80;;;8.55;;
76296;SDS011;65104;52.994;6.552;2023-02-28T06:44:36;17.67;;;7.75;;
76296;SDS011;65104;52.994;6.552;2023-02-28T06:47:02;19.08;;;8.40;;
76296;SDS011;65104;52.994;6.552;2023-02-28T06:49:29;12.73;;;7.75;;
76296;SDS011;65104;52.994;6.552;2023-02-28T06:51:55;14.15;;;7.80;;
76296;SDS011;65104;52.994;6.552;2023-02-28T06:54:21;14.93;;;7.70;;
76296;SDS011;65104;52.994;6.552;2023-02-28T06:56:46;14.27;;;7.50;;
76296;SDS011;65104;52.994;6.552;2023-02-28T06:59:12;15.32;;;8.13;;
76296;SDS011;65104;52.994;6.552;2023-02-28T07:01:37;14.98;;;7.78;;
76296;SDS011;65104;52.994;6.552;2023-02-28T07:04:04;12.55;;;7.40;;
76296;SDS011;65104;52.994;6.552;2023-02-28T07:06:30;13.43;;;7.22;;
76296;SDS011;65104;52.994;6.552;2023-02-28T07:08:56;14.68;;;7.03;;
76296;SDS011;65104;52.994;6.552;2023-02-28T07:11:23;14.30;;;7.65;;
76296;SDS011;65104;52.994;6.552;2023-02-28T07:13:54;16.30;;;7.20;;
76296;SDS011;65104;52.994;6.552;2023-02-28T07:16:20;13.10;;;6.78;;
76296;SDS011;65104;52.994;6.552;2023-02-28T07:18:47;13.88;;;7.35;;
76296;SDS011;65104;52.994;6.552;2023-02-28T07:21:12;11.93;;;7.53;;
76296;SDS011;65104;52.994;6.552;2023-02-28T07:23:38;12.13;;;6.53;;
76296;SDS011;65104;52.994;6.552;2023-02-28T07:26:04;12.82;;;6.72;;
76296;SDS011;65104;52.994;6.552;2023-02-28T07:28:31;14.65;;;6.40;;
76296;SDS011;65104;52.994;6.552;2023-02-28T07:31:02;14.68;;;6.68;;
76296;SDS011;65104;52.994;6.552;2023-02-28T07:33:28;14.75;;;7.65;;
76296;SDS011;65104;52.994;6.552;2023-02-28T07:35:59;13.68;;;7.28;;
76296;SDS011;65104;52.994;6.552;2023-02-28T07:38:26;13.32;;;7.28;;
76296;SDS011;65104;52.994;6.552;2023-02-28T07:40:51;12.10;;;6.27;;
76296;SDS011;65104;52.994;6.552;2023-02-28T07:43:16;11.30;;;6.47;;
76296;SDS011;65104;52.994;6.552;2023-02-28T07:45:42;12.45;;;6.65;;
76296;SDS011;65104;52.994;6.552;2023-02-28T07:48:07;14.82;;;7.10;;
76296;SDS011;65104;52.994;6.552;2023-02-28T07:50:34;12.52;;;7.18;;
76296;SDS011;65104;52.994;6.552;2023-02-28T07:53:00;15.25;;;8.05;;
76296;SDS011;65104;52.994;6.552;2023-02-28T07:55:26;13.13;;;7.10;;
76296;SDS011;65104;52.994;6.552;2023-02-28T07:57:52;13.88;;;6.93;;
76296;SDS011;65104;52.994;6.552;2023-02-28T08:00:17;14.23;;;7.68;;
76296;SDS011;65104;52.994;6.552;2023-02-28T08:02:43;14.88;;;7.15;;
76296;SDS011;65104;52.994;6.552;2023-02-28T08:05:08;15.45;;;8.40;;
76296;SDS011;65104;52.994;6.552;2023-02-28T08:07:34;12.70;;;6.95;;
76296;SDS011;65104;52.994;6.552;2023-02-28T08:09:59;13.07;;;7.20;;
76296;SDS011;65104;52.994;6.552;2023-02-28T08:12:25;13.43;;;7.28;;
76296;SDS011;65104;52.994;6.552;2023-02-28T08:14:50;14.30;;;7.60;;
76296;SDS011;65104;52.994;6.552;2023-02-28T08:17:16;14.77;;;6.90;;
76296;SDS011;65104;52.994;6.552;2023-02-28T08:19:41;12.13;;;6.88;;
76296;SDS011;65104;52.994;6.552;2023-02-28T08:22:06;14.43;;;8.27;;
76296;SDS011;65104;52.994;6.552;2023-02-28T08:24:32;12.35;;;6.82;;
76296;SDS011;65104;52.994;6.552;2023-02-28T08:26:58;11.07;;;6.93;;
76296;SDS011;65104;52.994;6.552;2023-02-28T08:29:23;14.70;;;7.25;;
76296;SDS011;65104;52.994;6.552;2023-02-28T08:31:49;15.32;;;7.60;;
76296;SDS011;65104;52.994;6.552;2023-02-28T08:34:15;17.55;;;7.45;;
76296;SDS011;65104;52.994;6.552;2023-02-28T08:36:41;10.60;;;6.72;;
76296;SDS011;65104;52.994;6.552;2023-02-28T08:39:07;11.27;;;6.15;;
76296;SDS011;65104;52.994;6.552;2023-02-28T08:41:33;12.27;;;7.43;;
76296;SDS011;65104;52.994;6.552;2023-02-28T08:43:59;15.10;;;7.40;;
76296;SDS011;65104;52.994;6.552;2023-02-28T08:46:25;12.77;;;6.80;;
76296;SDS011;65104;52.994;6.552;2023-02-28T08:48:51;10.35;;;6.28;;
76296;SDS011;65104;52.994;6.552;2023-02-28T08:51:18;15.23;;;7.35;;
76296;SDS011;65104;52.994;6.552;2023-02-28T08:53:51;12.40;;;6.72;;
76296;SDS011;65104;52.994;6.552;2023-02-28T08:56:17;12.50;;;6.88;;
76296;SDS011;65104;52.994;6.552;2023-02-28T08:58:43;11.57;;;6.53;;
76296;SDS011;65104;52.994;6.552;2023-02-28T09:01:13;14.25;;;6.80;;
76296;SDS011;65104;52.994;6.552;2023-02-28T09:03:44;10.55;;;6.30;;
76296;SDS011;65104;52.994;6.552;2023-02-28T09:06:11;11.20;;;6.57;;
76296;SDS011;65104;52.994;6.552;2023-02-28T09:08:37;12.57;;;7.00;;
76296;SDS011;65104;52.994;6.552;2023-02-28T09:11:02;10.45;;;6.78;;
76296;SDS011;65104;52.994;6.552;2023-02-28T09:13:29;11.45;;;6.28;;
76296;SDS011;65104;52.994;6.552;2023-02-28T09:15:57;11.88;;;7.25;;
76296;SDS011;65104;52.994;6.552;2023-02-28T09:18:24;11.75;;;7.45;;
76296;SDS011;65104;52.994;6.552;2023-02-28T09:20:51;12.32;;;8.23;;
76296;SDS011;65104;52.994;6.552;2023-02-28T09:23:17;13.13;;;7.80;;
76296;SDS011;65104;52.994;6.552;2023-02-28T09:25:46;10.70;;;6.20;;
76296;SDS011;65104;52.994;6.552;2023-02-28T09:28:13;10.57;;;6.95;;
76296;SDS011;65104;52.994;6.552;2023-02-28T09:30:40;10.40;;;6.40;;
76296;SDS011;65104;52.994;6.552;2023-02-28T09:33:06;10.75;;;6.03;;
76296;SDS011;65104;52.994;6.552;2023-02-28T09:35:32;9.95;;;5.88;;
76296;SDS011;65104;52.994;6.552;2023-02-28T09:37:57;10.02;;;5.78;;
76296;SDS011;65104;52.994;6.552;2023-02-28T09:40:23;9.85;;;6.40;;
76296;SDS011;65104;52.994;6.552;2023-02-28T09:42:52;10.45;;;6.47;;
76296;SDS011;65104;52.994;6.552;2023-02-28T09:47:56;11.32;;;7.00;;
76296;SDS011;65104;52.994;6.552;2023-02-28T09:50:48;8.50;;;6.07;;
76296;SDS011;65104;52.994;6.552;2023-02-28T09:55:51;10.40;;;6.05;;
76296;SDS011;65104;52.994;6.552;2023-02-28T09:58:23;10.38;;;6.07;;
76296;SDS011;65104;52.994;6.552;2023-02-28T10:01:05;7.80;;;4.72;;
76296;SDS011;65104;52.994;6.552;2023-02-28T10:03:38;9.57;;;5.45;;
76296;SDS011;65104;52.994;6.552;2023-02-28T10:08:40;6.55;;;4.80;;
76296;SDS011;65104;52.994;6.552;2023-02-28T10:11:13;7.28;;;5.35;;
76296;SDS011;65104;52.994;6.552;2023-02-28T10:16:35;7.47;;;5.03;;
76296;SDS011;65104;52.994;6.552;2023-02-28T10:19:06;4.45;;;3.47;;
76296;SDS011;65104;52.994;6.552;2023-02-28T10:21:41;8.18;;;4.25;;
76296;SDS011;65104;52.994;6.552;2023-02-28T10:24:22;5.15;;;3.35;;
76296;SDS011;65104;52.994;6.552;2023-02-28T10:26:56;4.50;;;2.80;;
76296;SDS011;65104;52.994;6.552;2023-02-28T10:29:25;6.60;;;3.25;;
76296;SDS011;65104;52.994;6.552;2023-02-28T10:31:51;5.95;;;4.10;;
76296;SDS011;65104;52.994;6.552;2023-02-28T10:34:17;6.47;;;3.40;;
76296;SDS011;65104;52.994;6.552;2023-02-28T10:36:42;5.40;;;3.50;;
76296;SDS011;65104;52.994;6.552;2023-02-28T10:42:24;3.88;;;2.83;;
76296;SDS011;65104;52.994;6.552;2023-02-28T10:45:05;6.03;;;3.42;;
76296;SDS011;65104;52.994;6.552;2023-02-28T10:47:31;4.55;;;2.60;;
76296;SDS011;65104;52.994;6.552;2023-02-28T10:49:59;4.38;;;2.85;;
76296;SDS011;65104;52.994;6.552;2023-02-28T10:52:37;4.45;;;3.42;;
76296;SDS011;65104;52.994;6.552;2023-02-28T10:58:00;3.80;;;2.55;;
76296;SDS011;65104;52.994;6.552;2023-02-28T11:00:25;3.83;;;3.22;;
76296;SDS011;65104;52.994;6.552;2023-02-28T11:02:58;6.03;;;4.18;;
76296;SDS011;65104;52.994;6.552;2023-02-28T11:05:31;4.80;;;3.45;;
76296;SDS011;65104;52.994;6.552;2023-02-28T11:08:04;4.70;;;3.20;;
76296;SDS011;65104;52.994;6.552;2023-02-28T11:10:36;5.10;;;3.35;;
76296;SDS011;65104;52.994;6.552;2023-02-28T11:13:01;5.65;;;3.80;;
76296;SDS011;65104;52.994;6.552;2023-02-28T11:15:34;5.45;;;4.18;;
76296;SDS011;65104;52.994;6.552;2023-02-28T11:20:32;6.03;;;4.10;;
76296;SDS011;65104;52.994;6.552;2023-02-28T11:22:58;5.18;;;3.45;;
76296;SDS011;65104;52.994;6.552;2023-02-28T11:25:30;6.03;;;3.85;;
76296;SDS011;65104;52.994;6.552;2023-02-28T11:27:59;4.90;;;3.63;;
76296;SDS011;65104;52.994;6.552;2023-02-28T11:30:39;6.32;;;3.88;;
76296;SDS011;65104;52.994;6.552;2023-02-28T11:33:18;4.82;;;3.50;;
76296;SDS011;65104;52.994;6.552;2023-02-28T11:35:45;6.68;;;3.88;;
76296;SDS011;65104;52.994;6.552;2023-02-28T11:38:13;5.68;;;3.90;;
76296;SDS011;65104;52.994;6.552;2023-02-28T11:43:09;5.25;;;3.65;;
76296;SDS011;65104;52.994;6.552;2023-02-28T11:49:06;5.85;;;3.80;;
76296;SDS011;65104;52.994;6.552;2023-02-28T12:03:34;4.63;;;3.20;;
76296;SDS011;65104;52.994;6.552;2023-02-28T12:27:32;4.55;;;3.72;;
76296;SDS011;65104;52.994;6.552;2023-02-28T12:30:08;5.45;;;3.45;;
76296;SDS011;65104;52.994;6.552;2023-02-28T12:32:41;4.03;;;3.40;;
76296;SDS011;65104;52.994;6.552;2023-02-28T12:35:12;3.65;;;3.35;;
76296;SDS011;65104;52.994;6.552;2023-02-28T12:40:12;5.07;;;3.35;;
76296;SDS011;65104;52.994;6.552;2023-02-28T12:42:58;3.60;;;3.25;;
76296;SDS011;65104;52.994;6.552;2023-02-28T12:45:38;5.70;;;3.88;;
76296;SDS011;65104;52.994;6.552;2023-02-28T12:48:09;4.28;;;3.72;;
76296;SDS011;65104;52.994;6.552;2023-02-28T12:50:39;6.28;;;3.55;;
76296;SDS011;65104;52.994;6.552;2023-02-28T12:53:10;4.55;;;3.40;;
76296;SDS011;65104;52.994;6.552;2023-02-28T12:55:50;4.55;;;3.60;;
76296;SDS011;65104;52.994;6.552;2023-02-28T13:06:16;4.72;;;3.40;;
76296;SDS011;65104;52.994;6.552;2023-02-28T13:11:25;4.95;;;3.63;;
76296;SDS011;65104;52.994;6.552;2023-02-28T13:14:01;3.45;;;2.95;;
76296;SDS011;65104;52.994;6.552;2023-02-28T13:16:47;5.47;;;3.72;;
76296;SDS011;65104;52.994;6.552;2023-02-28T13:24:54;4.55;;;3.80;;
76296;SDS011;65104;52.994;6.552;2023-02-28T13:29:50;4.90;;;3.20;;
76296;SDS011;65104;52.994;6.552;2023-02-28T13:32:28;5.57;;;3.28;;
76296;SDS011;65104;52.994;6.552;2023-02-28T13:42:30;4.57;;;3.40;;
76296;SDS011;65104;52.994;6.552;2023-02-28T13:47:34;4.90;;;3.80;;
76296;SDS011;65104;52.994;6.552;2023-02-28T14:07:06;6.15;;;3.88;;
76296;SDS011;65104;52.994;6.552;2023-02-28T14:18:05;5.38;;;3.55;;
76296;SDS011;65104;52.994;6.552;2023-02-28T14:20:40;4.35;;;3.42;;
76296;SDS011;65104;52.994;6.552;2023-02-28T14:26:02;5.40;;;3.85;;
76296;SDS011;65104;52.994;6.552;2023-02-28T14:36:35;4.40;;;3.47;;
76296;SDS011;65104;52.994;6.552;2023-02-28T14:39:06;5.72;;;3.15;;
76296;SDS011;65104;52.994;6.552;2023-02-28T14:41:37;6.35;;;3.60;;
76296;SDS011;65104;52.994;6.552;2023-02-28T14:46:50;7.07;;;3.40;;
76296;SDS011;65104;52.994;6.552;2023-02-28T14:49:37;3.45;;;2.95;;
76296;SDS011;65104;52.994;6.552;2023-02-28T14:52:15;5.60;;;3.50;;
76296;SDS011;65104;52.994;6.552;2023-02-28T14:54:45;4.50;;;3.75;;
76296;SDS011;65104;52.994;6.552;2023-02-28T14:57:31;7.90;;;4.00;;
76296;SDS011;65104;52.994;6.552;2023-02-28T15:02:24;3.50;;;3.10;;
76296;SDS011;65104;52.994;6.552;2023-02-28T15:05:01;5.88;;;3.60;;
76296;SDS011;65104;52.994;6.552;2023-02-28T15:07:41;5.43;;;3.80;;
76296;SDS011;65104;52.994;6.552;2023-02-28T15:12:45;4.32;;;3.60;;
76296;SDS011;65104;52.994;6.552;2023-02-28T15:15:18;5.07;;;3.85;;
76296;SDS011;65104;52.994;6.552;2023-02-28T15:17:46;5.32;;;3.53;;
76296;SDS011;65104;52.994;6.552;2023-02-28T15:20:15;4.75;;;3.50;;
76296;SDS011;65104;52.994;6.552;2023-02-28T15:22:43;6.30;;;4.00;;
76296;SDS011;65104;52.994;6.552;2023-02-28T15:25:12;4.85;;;3.78;;
76296;SDS011;65104;52.994;6.552;2023-02-28T15:27:42;7.13;;;4.57;;
76296;SDS011;65104;52.994;6.552;2023-02-28T15:30:17;4.40;;;3.28;;
76296;SDS011;65104;52.994;6.552;2023-02-28T15:32:46;4.40;;;3.20;;
76296;SDS011;65104;52.994;6.552;2023-02-28T15:35:33;4.97;;;3.25;;
76296;SDS011;65104;52.994;6.552;2023-02-28T15:40:43;5.78;;;4.05;;
76296;SDS011;65104;52.994;6.552;2023-02-28T15:43:14;5.22;;;3.90;;
76296;SDS011;65104;52.994;6.552;2023-02-28T15:45:51;6.38;;;4.45;;
76296;SDS011;65104;52.994;6.552;2023-02-28T15:48:30;7.32;;;3.75;;
76296;SDS011;65104;52.994;6.552;2023-02-28T15:51:07;6.07;;;3.67;;
76296;SDS011;65104;52.994;6.552;2023-02-28T15:56:47;6.65;;;4.57;;
76296;SDS011;65104;52.994;6.552;2023-02-28T15:59:16;7.72;;;5.22;;
76296;SDS011;65104;52.994;6.552;2023-02-28T16:07:22;7.20;;;4.50;;
76296;SDS011;65104;52.994;6.552;2023-02-28T16:09:49;6.85;;;4.72;;
76296;SDS011;65104;52.994;6.552;2023-02-28T16:12:14;6.93;;;5.18;;
76296;SDS011;65104;52.994;6.552;2023-02-28T16:14:40;8.02;;;5.20;;
76296;SDS011;65104;52.994;6.552;2023-02-28T16:17:06;7.60;;;4.60;;
76296;SDS011;65104;52.994;6.552;2023-02-28T16:19:40;6.38;;;4.55;;
76296;SDS011;65104;52.994;6.552;2023-02-28T16:22:05;7.22;;;5.00;;
76296;SDS011;65104;52.994;6.552;2023-02-28T16:24:31;8.13;;;5.03;;
76296;SDS011;65104;52.994;6.552;2023-02-28T16:26:56;6.53;;;4.93;;
76296;SDS011;65104;52.994;6.552;2023-02-28T16:29:29;9.07;;;6.20;;
76296;SDS011;65104;52.994;6.552;2023-02-28T16:31:57;11.00;;;6.85;;
76296;SDS011;65104;52.994;6.552;2023-02-28T16:34:23;9.75;;;6.60;;
76296;SDS011;65104;52.994;6.552;2023-02-28T16:36:49;7.80;;;5.97;;
76296;SDS011;65104;52.994;6.552;2023-02-28T16:39:15;7.47;;;5.30;;
76296;SDS011;65104;52.994;6.552;2023-02-28T16:41:44;7.47;;;5.13;;
76296;SDS011;65104;52.994;6.552;2023-02-28T16:44:14;5.97;;;4.38;;
76296;SDS011;65104;52.994;6.552;2023-02-28T16:49:11;7.50;;;5.20;;
76296;SDS011;65104;52.994;6.552;2023-02-28T16:51:37;6.38;;;4.53;;
76296;SDS011;65104;52.994;6.552;2023-02-28T16:54:03;6.78;;;4.45;;
76296;SDS011;65104;52.994;6.552;2023-02-28T16:56:28;9.43;;;5.22;;
76296;SDS011;65104;52.994;6.552;2023-02-28T16:58:54;9.48;;;5.47;;
76296;SDS011;65104;52.994;6.552;2023-02-28T17:01:22;7.97;;;4.95;;
76296;SDS011;65104;52.994;6.552;2023-02-28T17:03:48;8.48;;;6.07;;
76296;SDS011;65104;52.994;6.552;2023-02-28T17:06:19;11.38;;;6.07;;
76296;SDS011;65104;52.994;6.552;2023-02-28T17:08:47;9.68;;;5.97;;
76296;SDS011;65104;52.994;6.552;2023-02-28T17:11:13;7.50;;;5.53;;
76296;SDS011;65104;52.994;6.552;2023-02-28T17:13:38;9.10;;;5.85;;
76296;SDS011;65104;52.994;6.552;2023-02-28T17:16:04;7.18;;;5.20;;
76296;SDS011;65104;52.994;6.552;2023-02-28T17:18:30;9.45;;;6.07;;
76296;SDS011;65104;52.994;6.552;2023-02-28T17:20:59;9.13;;;6.70;;
76296;SDS011;65104;52.994;6.552;2023-02-28T17:23:25;12.15;;;7.38;;
76296;SDS011;65104;52.994;6.552;2023-02-28T17:25:50;8.70;;;7.10;;
76296;SDS011;65104;52.994;6.552;2023-02-28T17:28:22;11.35;;;8.05;;
76296;SDS011;65104;52.994;6.552;2023-02-28T17:30:47;13.00;;;7.55;;
76296;SDS011;65104;52.994;6.552;2023-02-28T17:33:13;9.90;;;7.72;;
76296;SDS011;65104;52.994;6.552;2023-02-28T17:35:40;11.20;;;7.75;;
76296;SDS011;65104;52.994;6.552;2023-02-28T17:38:08;10.75;;;7.35;;
76296;SDS011;65104;52.994;6.552;2023-02-28T17:40:40;11.65;;;7.90;;
76296;SDS011;65104;52.994;6.552;2023-02-28T17:43:05;11.13;;;8.32;;
76296;SDS011;65104;52.994;6.552;2023-02-28T17:45:31;11.73;;;7.93;;
76296;SDS011;65104;52.994;6.552;2023-02-28T17:47:56;10.88;;;7.93;;
76296;SDS011;65104;52.994;6.552;2023-02-28T17:50:22;11.43;;;8.25;;
76296;SDS011;65104;52.994;6.552;2023-02-28T17:52:48;12.95;;;8.45;;
76296;SDS011;65104;52.994;6.552;2023-02-28T17:55:15;12.38;;;8.68;;
76296;SDS011;65104;52.994;6.552;2023-02-28T17:57:40;14.63;;;8.95;;